createdAt,value
2017-09-13T00:00:42.050Z,997.34
2017-09-13T00:01:42.034Z,997.29
2017-09-13T00:02:42.022Z,997.17
2017-09-13T00:03:42.007Z,997.11
2017-09-13T00:04:41.993Z,997.09
2017-09-13T00:05:41.981Z,997.03
2017-09-13T00:06:41.966Z,996.97
2017-09-13T00:07:41.950Z,997.04
2017-09-13T00:08:41.937Z,997.01
2017-09-13T00:09:41.921Z,997.04
2017-09-13T00:10:41.914Z,996.96
2017-09-13T00:11:41.892Z,996.93
2017-09-13T00:12:41.877Z,996.85
2017-09-13T00:13:41.864Z,996.83
2017-09-13T00:14:41.849Z,996.89
2017-09-13T00:15:41.834Z,996.92
2017-09-13T00:16:41.821Z,996.91
2017-09-13T00:17:41.806Z,996.9
2017-09-13T00:18:41.790Z,996.88
2017-09-13T00:19:41.780Z,996.82
2017-09-13T00:20:41.762Z,996.81
2017-09-13T00:21:41.747Z,996.77
2017-09-13T00:22:41.732Z,996.78
2017-09-13T00:23:41.719Z,996.73
2017-09-13T00:24:41.705Z,996.78
2017-09-13T00:25:41.690Z,996.74
2017-09-13T00:26:41.676Z,996.72
2017-09-13T00:27:41.665Z,996.66
2017-09-13T00:28:41.684Z,996.69
2017-09-13T00:29:41.633Z,996.61
2017-09-13T00:30:41.619Z,996.61
2017-09-13T00:31:41.607Z,996.53
2017-09-13T00:32:41.590Z,996.5
2017-09-13T00:33:41.576Z,996.45
2017-09-13T00:34:41.562Z,996.39
2017-09-13T00:35:41.547Z,996.37
2017-09-13T00:36:41.532Z,996.38
2017-09-13T00:37:41.521Z,996.36
2017-09-13T00:38:41.503Z,996.26
2017-09-13T00:39:41.489Z,996.21
2017-09-13T00:40:41.478Z,996.18
2017-09-13T00:41:41.464Z,996.1
2017-09-13T00:42:41.452Z,996.11
2017-09-13T00:43:41.442Z,996.04
2017-09-13T00:44:41.424Z,996
2017-09-13T00:45:41.425Z,995.9
2017-09-13T00:46:41.391Z,995.86
2017-09-13T00:47:41.386Z,995.8
2017-09-13T00:48:41.367Z,995.76
2017-09-13T00:49:41.351Z,995.73
2017-09-13T00:50:41.334Z,995.75
2017-09-13T00:51:41.319Z,995.67
2017-09-13T00:52:41.311Z,995.62
2017-09-13T00:53:41.289Z,995.64
2017-09-13T00:54:41.277Z,995.56
2017-09-13T00:55:41.262Z,995.58
2017-09-13T00:56:41.246Z,995.59
2017-09-13T00:57:41.232Z,995.54
2017-09-13T00:58:41.222Z,995.44
2017-09-13T00:59:41.204Z,995.42
2017-09-13T01:00:41.198Z,995.39
2017-09-13T01:01:41.179Z,995.42
2017-09-13T01:02:41.164Z,995.4
2017-09-13T01:03:41.147Z,995.4
2017-09-13T01:04:41.133Z,995.33
2017-09-13T01:05:41.120Z,995.31
2017-09-13T01:06:41.106Z,995.22
2017-09-13T01:07:41.091Z,995.18
2017-09-13T01:08:41.077Z,995.1
2017-09-13T01:09:41.064Z,995.07
2017-09-13T01:10:41.050Z,995.06
2017-09-13T01:11:41.035Z,994.98
2017-09-13T01:12:41.020Z,994.99
2017-09-13T01:13:41.007Z,995.01
2017-09-13T01:14:40.992Z,994.97
2017-09-13T01:15:40.978Z,994.78
2017-09-13T01:16:40.964Z,994.71
2017-09-13T01:17:40.950Z,994.69
2017-09-13T01:18:40.936Z,994.71
2017-09-13T01:19:40.922Z,994.68
2017-09-13T01:20:40.908Z,994.71
2017-09-13T01:21:40.896Z,994.67
2017-09-13T01:22:40.881Z,994.63
2017-09-13T01:23:40.871Z,994.68
2017-09-13T01:24:40.852Z,994.61
2017-09-13T01:25:40.838Z,994.62
2017-09-13T01:26:40.823Z,994.65
2017-09-13T01:27:40.809Z,994.64
2017-09-13T01:28:40.796Z,994.65
2017-09-13T01:29:40.810Z,994.63
2017-09-13T01:30:40.766Z,994.57
2017-09-13T01:31:40.752Z,994.59
2017-09-13T01:32:40.739Z,994.58
2017-09-13T01:33:40.726Z,994.64
2017-09-13T01:34:40.713Z,994.57
2017-09-13T01:35:40.697Z,994.51
2017-09-13T01:36:40.682Z,994.54
2017-09-13T01:37:40.668Z,994.46
2017-09-13T01:38:40.656Z,994.47
2017-09-13T01:39:40.644Z,994.51
2017-09-13T01:40:40.627Z,994.47
2017-09-13T01:41:40.616Z,994.53
2017-09-13T01:42:40.601Z,994.57
2017-09-13T01:43:40.586Z,994.56
2017-09-13T01:44:40.575Z,994.55
2017-09-13T01:45:40.559Z,994.54
2017-09-13T01:46:40.544Z,994.62
2017-09-13T01:47:40.533Z,994.6
2017-09-13T01:48:40.516Z,994.63
2017-09-13T01:49:40.504Z,994.61
2017-09-13T01:50:40.488Z,994.65
2017-09-13T01:51:40.473Z,994.62
2017-09-13T01:52:40.458Z,994.62
2017-09-13T01:53:40.447Z,994.54
2017-09-13T01:54:40.430Z,994.51
2017-09-13T01:55:40.418Z,994.43
2017-09-13T01:56:40.405Z,994.39
2017-09-13T01:57:40.391Z,994.33
2017-09-13T01:58:40.373Z,994.3
2017-09-13T01:59:40.361Z,994.24
2017-09-13T02:00:40.348Z,994.23
2017-09-13T02:01:40.335Z,994.18
2017-09-13T02:02:40.320Z,994.09
2017-09-13T02:03:40.346Z,994.06
2017-09-13T02:04:40.297Z,994.02
2017-09-13T02:05:40.277Z,993.96
2017-09-13T02:06:40.265Z,993.82
2017-09-13T02:07:40.249Z,993.75
2017-09-13T02:08:40.235Z,993.65
2017-09-13T02:09:40.220Z,993.61
2017-09-13T02:10:40.207Z,993.51
2017-09-13T02:11:40.193Z,993.43
2017-09-13T02:12:40.178Z,993.41
2017-09-13T02:13:40.164Z,993.36
2017-09-13T02:14:40.151Z,993.2
2017-09-13T02:15:40.140Z,993.1
2017-09-13T02:16:40.126Z,993.09
2017-09-13T02:17:40.109Z,993.01
2017-09-13T02:18:40.094Z,992.94
2017-09-13T02:19:40.079Z,992.95
2017-09-13T02:20:40.064Z,993.09
2017-09-13T02:21:40.051Z,992.98
2017-09-13T02:22:40.039Z,992.99
2017-09-13T02:23:40.024Z,993.01
2017-09-13T02:24:40.010Z,992.92
2017-09-13T02:25:39.996Z,992.9
2017-09-13T02:26:39.980Z,992.94
2017-09-13T02:27:39.964Z,992.95
2017-09-13T02:28:39.951Z,992.98
2017-09-13T02:29:39.955Z,993.01
2017-09-13T02:30:39.921Z,993.04
2017-09-13T02:31:39.906Z,993.04
2017-09-13T02:32:39.890Z,993.03
2017-09-13T02:33:39.878Z,993
2017-09-13T02:34:39.863Z,992.98
2017-09-13T02:35:39.847Z,993.05
2017-09-13T02:36:39.832Z,993
2017-09-13T02:37:39.819Z,992.96
2017-09-13T02:38:39.802Z,992.85
2017-09-13T02:39:39.809Z,992.69
2017-09-13T02:40:39.772Z,992.51
2017-09-13T02:41:39.762Z,992.47
2017-09-13T02:42:39.764Z,992.45
2017-09-13T02:43:39.728Z,992.37
2017-09-13T02:44:39.713Z,992.41
2017-09-13T02:45:39.701Z,992.42
2017-09-13T02:46:39.685Z,992.33
2017-09-13T02:47:39.669Z,992.21
2017-09-13T02:48:39.683Z,992.06
2017-09-13T02:49:39.637Z,992.05
2017-09-13T02:50:39.626Z,992.01
2017-09-13T02:51:39.608Z,992
2017-09-13T02:52:39.597Z,992.02
2017-09-13T02:53:39.580Z,992
2017-09-13T02:54:39.565Z,991.99
2017-09-13T02:55:39.557Z,991.98
2017-09-13T02:56:39.536Z,991.94
2017-09-13T02:57:39.521Z,991.91
2017-09-13T02:58:39.503Z,991.77
2017-09-13T02:59:39.489Z,991.76
2017-09-13T03:00:39.473Z,991.69
2017-09-13T03:01:39.456Z,991.69
2017-09-13T03:02:39.442Z,991.71
2017-09-13T03:03:39.430Z,991.69
2017-09-13T03:04:39.416Z,991.59
2017-09-13T03:05:39.396Z,991.57
2017-09-13T03:06:39.380Z,991.68
2017-09-13T03:07:39.367Z,991.55
2017-09-13T03:08:39.350Z,991.62
2017-09-13T03:09:39.335Z,991.54
2017-09-13T03:10:39.321Z,991.55
2017-09-13T03:11:39.305Z,991.48
2017-09-13T03:12:39.292Z,991.4
2017-09-13T03:13:39.275Z,991.41
2017-09-13T03:14:39.263Z,991.38
2017-09-13T03:15:39.245Z,991.31
2017-09-13T03:16:39.228Z,991.35
2017-09-13T03:17:39.216Z,991.2
2017-09-13T03:18:39.198Z,991.17
2017-09-13T03:19:39.184Z,991.09
2017-09-13T03:20:39.166Z,991.05
2017-09-13T03:21:39.153Z,991.01
2017-09-13T03:22:39.137Z,990.99
2017-09-13T03:23:39.120Z,990.93
2017-09-13T03:24:39.108Z,990.93
2017-09-13T03:25:39.090Z,990.87
2017-09-13T03:26:39.077Z,990.84
2017-09-13T03:27:39.060Z,990.86
2017-09-13T03:28:39.044Z,990.83
2017-09-13T03:29:39.031Z,990.77
2017-09-13T03:30:39.014Z,990.76
2017-09-13T03:31:39.000Z,990.69
2017-09-13T03:32:38.982Z,990.73
2017-09-13T03:33:38.969Z,990.65
2017-09-13T03:34:38.952Z,990.56
2017-09-13T03:35:38.938Z,990.6
2017-09-13T03:36:38.925Z,990.52
2017-09-13T03:37:38.906Z,990.56
2017-09-13T03:38:38.890Z,990.54
2017-09-13T03:39:39.079Z,990.63
2017-09-13T03:40:38.864Z,990.48
2017-09-13T03:41:38.843Z,990.48
2017-09-13T03:42:38.830Z,990.43
2017-09-13T03:43:38.813Z,990.45
2017-09-13T03:44:38.799Z,990.38
2017-09-13T03:45:38.788Z,990.34
2017-09-13T03:46:38.767Z,990.23
2017-09-13T03:47:38.754Z,990.26
2017-09-13T03:48:38.757Z,990.18
2017-09-13T03:49:38.720Z,990.19
2017-09-13T03:50:38.705Z,990.07
2017-09-13T03:51:38.689Z,990.11
2017-09-13T03:52:38.673Z,990.19
2017-09-13T03:53:38.660Z,990.14
2017-09-13T03:54:38.645Z,990.08
2017-09-13T03:55:38.629Z,990.11
2017-09-13T03:56:38.614Z,990.04
2017-09-13T03:57:38.596Z,989.96
2017-09-13T03:58:38.585Z,989.9
2017-09-13T03:59:38.566Z,989.88
2017-09-13T04:00:38.550Z,989.89
2017-09-13T04:01:38.534Z,989.72
2017-09-13T04:02:38.517Z,989.77
2017-09-13T04:03:38.505Z,989.78
2017-09-13T04:04:38.488Z,989.73
2017-09-13T04:05:38.480Z,989.83
2017-09-13T04:06:38.459Z,989.72
2017-09-13T04:07:38.443Z,989.71
2017-09-13T04:08:38.428Z,989.65
2017-09-13T04:09:38.414Z,989.63
2017-09-13T04:10:38.396Z,989.53
2017-09-13T04:11:38.379Z,989.53
2017-09-13T04:12:38.365Z,989.52
2017-09-13T04:13:38.350Z,989.57
2017-09-13T04:14:38.333Z,989.46
2017-09-13T04:15:38.318Z,989.46
2017-09-13T04:16:38.301Z,989.48
2017-09-13T04:17:38.286Z,989.44
2017-09-13T04:18:38.272Z,989.51
2017-09-13T04:19:38.264Z,989.41
2017-09-13T04:20:38.240Z,989.46
2017-09-13T04:21:38.223Z,989.37
2017-09-13T04:22:38.209Z,989.3
2017-09-13T04:23:38.193Z,989.25
2017-09-13T04:24:38.176Z,989.29
2017-09-13T04:25:38.161Z,989.31
2017-09-13T04:26:38.147Z,989.25
2017-09-13T04:27:38.130Z,989.25
2017-09-13T04:28:38.115Z,989.21
2017-09-13T04:29:38.099Z,989.22
2017-09-13T04:30:38.084Z,989.19
2017-09-13T04:31:38.069Z,989.11
2017-09-13T04:32:38.052Z,989.21
2017-09-13T04:33:38.037Z,989.05
2017-09-13T04:34:38.021Z,988.92
2017-09-13T04:35:38.006Z,988.92
2017-09-13T04:36:37.990Z,988.85
2017-09-13T04:37:37.975Z,988.79
2017-09-13T04:38:37.960Z,988.92
2017-09-13T04:39:37.942Z,988.96
2017-09-13T04:40:37.927Z,988.93
2017-09-13T04:41:37.911Z,988.84
2017-09-13T04:42:37.897Z,988.83
2017-09-13T04:43:37.879Z,988.81
2017-09-13T04:44:37.866Z,988.78
2017-09-13T04:45:37.853Z,988.76
2017-09-13T04:46:37.834Z,988.88
2017-09-13T04:47:37.817Z,988.75
2017-09-13T04:48:37.804Z,988.71
2017-09-13T04:49:37.790Z,988.76
2017-09-13T04:50:37.772Z,988.64
2017-09-13T04:51:37.759Z,988.69
2017-09-13T04:52:37.741Z,988.63
2017-09-13T04:53:37.740Z,988.68
2017-09-13T04:54:37.711Z,988.6
2017-09-13T04:55:37.700Z,988.57
2017-09-13T04:56:37.680Z,988.65
2017-09-13T04:57:37.664Z,988.61
2017-09-13T04:58:37.647Z,988.66
2017-09-13T04:59:37.630Z,988.7
2017-09-13T05:00:37.615Z,988.68
2017-09-13T05:01:37.602Z,988.72
2017-09-13T05:02:37.587Z,988.66
2017-09-13T05:03:37.567Z,988.68
2017-09-13T05:04:37.552Z,988.75
2017-09-13T05:05:37.540Z,988.81
2017-09-13T05:06:37.523Z,988.74
2017-09-13T05:07:37.506Z,988.75
2017-09-13T05:08:37.492Z,988.74
2017-09-13T05:09:37.476Z,988.75
2017-09-13T05:10:37.459Z,988.67
2017-09-13T05:11:37.444Z,988.8
2017-09-13T05:12:37.431Z,988.72
2017-09-13T05:13:37.411Z,988.77
2017-09-13T05:14:37.399Z,988.74
2017-09-13T05:15:37.379Z,988.54
2017-09-13T05:16:37.365Z,988.66
2017-09-13T05:17:37.350Z,988.62
2017-09-13T05:18:37.334Z,988.56
2017-09-13T05:19:37.317Z,988.43
2017-09-13T05:20:37.302Z,988.49
2017-09-13T05:21:37.288Z,988.67
2017-09-13T05:22:37.273Z,988.51
2017-09-13T05:23:37.254Z,988.45
2017-09-13T05:24:37.242Z,988.37
2017-09-13T05:25:37.226Z,988.4
2017-09-13T05:26:37.209Z,988.45
2017-09-13T05:27:37.201Z,988.42
2017-09-13T05:28:37.177Z,988.38
2017-09-13T05:29:37.163Z,988.29
2017-09-13T05:30:37.147Z,988.31
2017-09-13T05:31:37.132Z,988.46
2017-09-13T05:32:37.117Z,988.35
2017-09-13T05:33:37.103Z,988.28
2017-09-13T05:34:37.084Z,988.22
2017-09-13T05:35:37.068Z,988.26
2017-09-13T05:36:37.078Z,988.4
2017-09-13T05:37:37.037Z,988.35
2017-09-13T05:38:37.021Z,988.26
2017-09-13T05:39:37.208Z,988.33
2017-09-13T05:40:36.993Z,988.3
2017-09-13T05:41:36.975Z,988.28
2017-09-13T05:42:36.960Z,988.33
2017-09-13T05:43:36.948Z,988.44
2017-09-13T05:44:36.932Z,988.36
2017-09-13T05:45:36.915Z,988.32
2017-09-13T05:46:36.907Z,988.22
2017-09-13T05:47:36.882Z,988.22
2017-09-13T05:48:36.867Z,988.28
2017-09-13T05:49:36.852Z,988.21
2017-09-13T05:50:36.839Z,988.23
2017-09-13T05:51:36.822Z,988.26
2017-09-13T05:52:36.805Z,988.19
2017-09-13T05:53:36.791Z,988.23
2017-09-13T05:54:36.775Z,988.25
2017-09-13T05:55:36.759Z,988.23
2017-09-13T05:56:36.744Z,988.2
2017-09-13T05:57:36.732Z,988.16
2017-09-13T05:58:36.713Z,988.14
2017-09-13T05:59:36.697Z,988.09
2017-09-13T06:00:36.684Z,988.26
2017-09-13T06:01:36.672Z,988.21
2017-09-13T06:02:36.651Z,988.22
2017-09-13T06:03:36.641Z,988.14
2017-09-13T06:04:36.623Z,988.17
2017-09-13T06:05:36.611Z,988.18
2017-09-13T06:06:36.591Z,988.13
2017-09-13T06:07:36.579Z,988.08
2017-09-13T06:08:36.560Z,988.18
2017-09-13T06:09:36.545Z,988.22
2017-09-13T06:10:36.531Z,988.26
2017-09-13T06:11:36.515Z,988.19
2017-09-13T06:12:36.499Z,988.19
2017-09-13T06:13:36.483Z,988.03
2017-09-13T06:14:36.468Z,988.13
2017-09-13T06:15:36.452Z,988.05
2017-09-13T06:16:36.438Z,988.02
2017-09-13T06:17:36.422Z,987.92
2017-09-13T06:18:36.409Z,987.9
2017-09-13T06:19:36.395Z,987.86
2017-09-13T06:20:36.377Z,987.94
2017-09-13T06:21:36.362Z,987.99
2017-09-13T06:22:36.346Z,988.05
2017-09-13T06:23:36.332Z,988.03
2017-09-13T06:24:36.317Z,988.03
2017-09-13T06:25:36.301Z,988.02
2017-09-13T06:26:36.289Z,987.96
2017-09-13T06:27:36.281Z,988.13
2017-09-13T06:28:36.255Z,987.92
2017-09-13T06:29:36.245Z,987.75
2017-09-13T06:30:36.225Z,987.86
2017-09-13T06:31:36.210Z,987.77
2017-09-13T06:32:36.197Z,987.79
2017-09-13T06:33:36.182Z,987.92
2017-09-13T06:34:36.165Z,987.79
2017-09-13T06:35:36.154Z,987.87
2017-09-13T06:36:36.137Z,987.88
2017-09-13T06:37:36.119Z,987.87
2017-09-13T06:38:36.129Z,987.92
2017-09-13T06:39:36.091Z,987.86
2017-09-13T06:40:36.074Z,987.97
2017-09-13T06:41:36.060Z,987.86
2017-09-13T06:42:36.045Z,988.09
2017-09-13T06:43:36.031Z,987.94
2017-09-13T06:44:36.016Z,988.02
2017-09-13T06:45:36.002Z,987.73
2017-09-13T06:46:35.986Z,988.03
2017-09-13T06:47:35.970Z,987.84
2017-09-13T06:48:35.956Z,987.94
2017-09-13T06:49:35.940Z,988.03
2017-09-13T06:50:35.926Z,988
2017-09-13T06:51:35.911Z,987.92
2017-09-13T06:52:35.896Z,987.94
2017-09-13T06:53:35.882Z,987.96
2017-09-13T06:54:35.867Z,987.88
2017-09-13T06:55:35.853Z,987.99
2017-09-13T06:56:35.838Z,988.02
2017-09-13T06:57:35.824Z,988.01
2017-09-13T06:58:35.809Z,987.95
2017-09-13T06:59:35.797Z,988
2017-09-13T07:00:35.781Z,987.9
2017-09-13T07:01:35.766Z,987.92
2017-09-13T07:02:35.749Z,987.85
2017-09-13T07:03:35.737Z,988
2017-09-13T07:04:35.722Z,988.05
2017-09-13T07:05:35.707Z,987.93
2017-09-13T07:06:35.693Z,987.97
2017-09-13T07:07:35.679Z,987.91
2017-09-13T07:08:35.666Z,987.98
2017-09-13T07:09:35.650Z,988.15
2017-09-13T07:10:35.637Z,987.92
2017-09-13T07:11:35.625Z,987.87
2017-09-13T07:12:35.610Z,987.95
2017-09-13T07:13:35.594Z,987.83
2017-09-13T07:14:35.581Z,987.81
2017-09-13T07:15:35.567Z,987.82
2017-09-13T07:16:35.555Z,987.74
2017-09-13T07:17:35.543Z,987.87
2017-09-13T07:18:35.523Z,987.83
2017-09-13T07:19:35.509Z,987.87
2017-09-13T07:20:35.497Z,987.76
2017-09-13T07:21:35.481Z,987.59
2017-09-13T07:22:35.470Z,987.73
2017-09-13T07:23:35.453Z,987.77
2017-09-13T07:24:35.440Z,987.87
2017-09-13T07:25:35.428Z,987.73
2017-09-13T07:26:35.414Z,987.55
2017-09-13T07:27:35.400Z,987.51
2017-09-13T07:28:35.387Z,987.72
2017-09-13T07:29:35.374Z,987.53
2017-09-13T07:30:35.359Z,987.68
2017-09-13T07:31:35.515Z,987.7
2017-09-13T07:32:35.331Z,987.61
2017-09-13T07:33:35.317Z,987.8
2017-09-13T07:34:35.302Z,987.56
2017-09-13T07:35:35.300Z,987.58
2017-09-13T07:36:35.278Z,987.67
2017-09-13T07:37:35.264Z,987.58
2017-09-13T07:38:35.250Z,987.47
2017-09-13T07:39:35.440Z,987.63
2017-09-13T07:40:35.227Z,987.53
2017-09-13T07:41:35.211Z,987.54
2017-09-13T07:42:35.196Z,987.48
2017-09-13T07:43:35.185Z,987.48
2017-09-13T07:44:35.172Z,987.53
2017-09-13T07:45:35.183Z,987.45
2017-09-13T07:46:35.144Z,987.5
2017-09-13T07:47:35.132Z,987.48
2017-09-13T07:48:35.120Z,987.5
2017-09-13T07:49:35.106Z,987.61
2017-09-13T07:50:35.093Z,987.52
2017-09-13T07:51:35.082Z,987.45
2017-09-13T07:52:35.068Z,987.38
2017-09-13T07:53:35.148Z,987.37
2017-09-13T07:54:35.044Z,987.51
2017-09-13T07:55:35.044Z,987.32
2017-09-13T07:56:35.027Z,987.56
2017-09-13T07:57:35.005Z,987.67
2017-09-13T07:58:34.993Z,987.52
2017-09-13T07:59:34.984Z,987.56
2017-09-13T08:00:34.968Z,987.67
2017-09-13T08:01:34.982Z,987.75
2017-09-13T08:02:34.943Z,987.43
2017-09-13T08:03:34.929Z,987.57
2017-09-13T08:04:34.920Z,987.66
2017-09-13T08:05:34.907Z,987.68
2017-09-13T08:06:34.893Z,987.56
2017-09-13T08:07:34.879Z,987.61
2017-09-13T08:08:34.868Z,987.61
2017-09-13T08:09:34.857Z,987.6
2017-09-13T08:10:34.846Z,987.56
2017-09-13T08:11:34.829Z,987.62
2017-09-13T08:12:34.820Z,987.69
2017-09-13T08:13:34.806Z,987.64
2017-09-13T08:14:34.798Z,987.71
2017-09-13T08:15:34.781Z,987.83
2017-09-13T08:16:34.778Z,987.91
2017-09-13T08:17:34.756Z,987.73
2017-09-13T08:18:34.744Z,987.74
2017-09-13T08:19:34.737Z,987.74
2017-09-13T08:20:34.721Z,987.89
2017-09-13T08:21:34.710Z,987.66
2017-09-13T08:22:34.700Z,987.65
2017-09-13T08:23:34.684Z,987.75
2017-09-13T08:24:34.684Z,987.81
2017-09-13T08:25:34.660Z,987.8
2017-09-13T08:26:34.649Z,987.81
2017-09-13T08:27:34.635Z,987.75
2017-09-13T08:28:34.625Z,987.75
2017-09-13T08:29:34.611Z,987.8
2017-09-13T08:30:34.600Z,987.95
2017-09-13T08:31:34.588Z,987.89
2017-09-13T08:32:34.583Z,987.85
2017-09-13T08:33:34.566Z,988.1
2017-09-13T08:34:34.554Z,987.97
2017-09-13T08:35:34.542Z,988.21
2017-09-13T08:36:34.530Z,987.99
2017-09-13T08:37:34.518Z,987.84
2017-09-13T08:38:34.506Z,987.79
2017-09-13T08:39:34.494Z,988.02
2017-09-13T08:40:34.482Z,987.88
2017-09-13T08:41:34.479Z,987.9
2017-09-13T08:42:34.462Z,987.76
2017-09-13T08:43:34.447Z,987.98
2017-09-13T08:44:34.436Z,987.76
2017-09-13T08:45:34.427Z,988.09
2017-09-13T08:46:34.413Z,987.85
2017-09-13T08:47:34.402Z,987.91
2017-09-13T08:48:34.420Z,987.95
2017-09-13T08:49:34.378Z,988.07
2017-09-13T08:50:34.365Z,988.07
2017-09-13T08:51:34.354Z,988.08
2017-09-13T08:52:34.344Z,988.02
2017-09-13T08:53:34.340Z,987.84
2017-09-13T08:54:34.323Z,988.11
2017-09-13T08:55:34.310Z,988.12
2017-09-13T08:56:34.296Z,988.13
2017-09-13T08:57:34.288Z,987.93
2017-09-13T08:58:34.274Z,988.09
2017-09-13T08:59:34.262Z,987.91
2017-09-13T09:00:34.253Z,987.99
2017-09-13T09:01:34.239Z,988.04
2017-09-13T09:02:34.227Z,987.7
2017-09-13T09:03:34.215Z,988.11
2017-09-13T09:04:34.204Z,987.99
2017-09-13T09:05:34.197Z,987.91
2017-09-13T09:06:34.182Z,988.16
2017-09-13T09:07:34.491Z,988.03
2017-09-13T09:08:34.390Z,988.4
2017-09-13T09:09:34.172Z,988.52
2017-09-13T09:10:34.136Z,988.13
2017-09-13T09:11:34.125Z,988.33
2017-09-13T09:12:34.115Z,988.12
2017-09-13T09:13:34.110Z,988.22
2017-09-13T09:14:34.089Z,988.34
2017-09-13T09:15:34.078Z,988.24
2017-09-13T09:16:34.067Z,988.29
2017-09-13T09:17:34.055Z,988.18
2017-09-13T09:18:34.056Z,988.41
2017-09-13T09:19:34.033Z,988.45
2017-09-13T09:20:34.022Z,988.38
2017-09-13T09:21:34.012Z,988.53
2017-09-13T09:22:33.998Z,988.69
2017-09-13T09:23:33.987Z,988.59
2017-09-13T09:24:33.976Z,988.45
2017-09-13T09:25:33.965Z,988.45
2017-09-13T09:26:33.953Z,988.74
2017-09-13T09:27:33.942Z,988.67
2017-09-13T09:28:33.932Z,988.4
2017-09-13T09:29:33.924Z,988.53
2017-09-13T09:30:33.909Z,988.6
2017-09-13T09:31:33.897Z,988.85
2017-09-13T09:32:33.887Z,988.55
2017-09-13T09:33:33.876Z,988.73
2017-09-13T09:34:33.864Z,988.7
2017-09-13T09:35:33.854Z,988.65
2017-09-13T09:36:33.842Z,988.8
2017-09-13T09:37:33.832Z,988.79
2017-09-13T09:38:33.826Z,988.6
2017-09-13T09:39:34.011Z,988.7
2017-09-13T09:40:33.802Z,988.68
2017-09-13T09:41:33.796Z,988.69
2017-09-13T09:42:33.979Z,988.68
2017-09-13T09:43:33.764Z,988.71
2017-09-13T09:44:33.754Z,988.71
2017-09-13T09:45:33.760Z,988.56
2017-09-13T09:46:33.731Z,988.74
2017-09-13T09:47:33.724Z,988.7
2017-09-13T09:48:33.710Z,988.59
2017-09-13T09:49:33.699Z,988.64
2017-09-13T09:50:33.689Z,988.57
2017-09-13T09:51:33.678Z,988.6
2017-09-13T09:52:33.667Z,988.52
2017-09-13T09:53:33.655Z,988.77
2017-09-13T09:54:33.647Z,988.79
2017-09-13T09:55:33.633Z,988.81
2017-09-13T09:56:33.625Z,988.9
2017-09-13T09:57:33.614Z,988.81
2017-09-13T09:58:33.601Z,988.99
2017-09-13T09:59:33.596Z,988.82
2017-09-13T10:00:33.579Z,988.73
2017-09-13T10:01:33.569Z,988.94
2017-09-13T10:02:33.561Z,988.89
2017-09-13T10:03:33.550Z,988.96
2017-09-13T10:04:33.537Z,988.9
2017-09-13T10:05:33.525Z,989
2017-09-13T10:06:33.530Z,988.98
2017-09-13T10:07:33.505Z,988.96
2017-09-13T10:08:33.493Z,988.96
2017-09-13T10:09:33.482Z,988.95
2017-09-13T10:10:33.471Z,988.91
2017-09-13T10:11:33.459Z,988.88
2017-09-13T10:12:33.451Z,988.89
2017-09-13T10:13:33.438Z,988.78
2017-09-13T10:14:33.428Z,989.06
2017-09-13T10:15:33.414Z,988.99
2017-09-13T10:16:33.404Z,989.05
2017-09-13T10:17:33.397Z,989
2017-09-13T10:18:33.382Z,988.92
2017-09-13T10:19:33.368Z,988.99
2017-09-13T10:20:33.358Z,989.12
2017-09-13T10:21:33.345Z,989.08
2017-09-13T10:22:33.339Z,989.05
2017-09-13T10:23:33.323Z,989.03
2017-09-13T10:24:33.313Z,989.05
2017-09-13T10:25:33.303Z,988.95
2017-09-13T10:26:33.289Z,989.04
2017-09-13T10:27:33.279Z,989.02
2017-09-13T10:28:33.265Z,989.06
2017-09-13T10:29:33.256Z,988.97
2017-09-13T10:30:33.241Z,989.14
2017-09-13T10:31:33.230Z,989.08
2017-09-13T10:32:33.222Z,989.16
2017-09-13T10:33:33.207Z,989.12
2017-09-13T10:34:33.194Z,989.32
2017-09-13T10:35:33.182Z,989.44
2017-09-13T10:36:33.173Z,989.23
2017-09-13T10:37:33.162Z,989.22
2017-09-13T10:38:33.153Z,989.14
2017-09-13T10:39:33.140Z,989.3
2017-09-13T10:40:33.127Z,989.24
2017-09-13T10:41:33.115Z,989.26
2017-09-13T10:42:33.106Z,989.16
2017-09-13T10:43:33.097Z,989.33
2017-09-13T10:44:33.083Z,989.26
2017-09-13T10:45:33.072Z,989.44
2017-09-13T10:46:33.061Z,989.25
2017-09-13T10:47:33.050Z,989.5
2017-09-13T10:48:33.039Z,989.13
2017-09-13T10:49:33.029Z,989.22
2017-09-13T10:50:33.020Z,989.27
2017-09-13T10:51:33.012Z,989.34
2017-09-13T10:52:33.000Z,988.99
2017-09-13T10:53:32.988Z,989.22
2017-09-13T10:54:32.985Z,989.27
2017-09-13T10:55:32.970Z,989.02
2017-09-13T10:56:32.960Z,988.9
2017-09-13T10:57:32.949Z,989.25
2017-09-13T10:58:32.940Z,989.31
2017-09-13T10:59:32.930Z,989.18
2017-09-13T11:00:32.920Z,988.95
2017-09-13T11:01:32.915Z,989.08
2017-09-13T11:02:32.909Z,989.28
2017-09-13T11:03:32.900Z,989.39
2017-09-13T11:04:32.886Z,989.37
2017-09-13T11:05:32.877Z,989.46
2017-09-13T11:06:32.869Z,989.56
2017-09-13T11:07:32.860Z,989.72
2017-09-13T11:08:32.853Z,989.68
2017-09-13T11:09:32.845Z,989.66
2017-09-13T11:10:32.837Z,989.69
2017-09-13T11:11:32.833Z,989.74
2017-09-13T11:12:32.823Z,989.72
2017-09-13T11:13:32.813Z,989.74
2017-09-13T11:14:32.809Z,989.82
2017-09-13T11:15:32.801Z,989.67
2017-09-13T11:16:32.797Z,989.82
2017-09-13T11:17:32.791Z,989.76
2017-09-13T11:18:32.784Z,989.74
2017-09-13T11:19:32.777Z,989.75
2017-09-13T11:20:32.771Z,989.78
2017-09-13T11:21:32.764Z,989.68
2017-09-13T11:22:32.759Z,989.9
2017-09-13T11:23:32.752Z,989.93
2017-09-13T11:24:32.746Z,989.91
2017-09-13T11:25:32.742Z,990.09
2017-09-13T11:26:32.733Z,989.9
2017-09-13T11:27:32.728Z,989.91
2017-09-13T11:28:32.721Z,989.95
2017-09-13T11:29:32.714Z,989.94
2017-09-13T11:30:32.707Z,989.92
2017-09-13T11:31:32.699Z,989.92
2017-09-13T11:32:32.693Z,989.92
2017-09-13T11:33:32.688Z,990.15
2017-09-13T11:34:32.685Z,990.05
2017-09-13T11:35:32.673Z,990.21
2017-09-13T11:36:32.669Z,990.57
2017-09-13T11:37:32.662Z,990.18
2017-09-13T11:38:32.656Z,990.02
2017-09-13T11:39:32.854Z,990.22
2017-09-13T11:40:32.648Z,990.48
2017-09-13T11:41:32.642Z,990.17
2017-09-13T11:42:32.639Z,990.28
2017-09-13T11:43:32.641Z,990.21
2017-09-13T11:44:32.628Z,990.68
2017-09-13T11:45:32.625Z,990.26
2017-09-13T11:46:32.622Z,990.35
2017-09-13T11:47:32.620Z,990.6
2017-09-13T11:48:32.617Z,990.36
2017-09-13T11:49:32.614Z,990.48
2017-09-13T11:50:32.611Z,990.55
2017-09-13T11:51:32.607Z,990.47
2017-09-13T11:52:32.607Z,990.44
2017-09-13T11:53:32.602Z,990.87
2017-09-13T11:54:32.601Z,990.65
2017-09-13T11:55:32.598Z,990.48
2017-09-13T11:56:32.594Z,990.64
2017-09-13T11:57:32.590Z,990.57
2017-09-13T11:58:32.588Z,990.54
2017-09-13T11:59:32.588Z,990.39
2017-09-13T12:00:32.584Z,990.6
2017-09-13T12:01:32.580Z,990.82
2017-09-13T12:02:32.574Z,990.81
2017-09-13T12:03:32.570Z,990.9
2017-09-13T12:04:32.575Z,990.73
2017-09-13T12:05:32.564Z,990.6
2017-09-13T12:06:32.564Z,990.95
2017-09-13T12:07:32.561Z,990.76
2017-09-13T12:08:32.556Z,991
2017-09-13T12:09:32.551Z,990.84
2017-09-13T12:10:32.550Z,990.86
2017-09-13T12:11:32.547Z,991.01
2017-09-13T12:12:32.543Z,990.79
2017-09-13T12:13:32.539Z,990.92
2017-09-13T12:14:32.539Z,990.88
2017-09-13T12:15:32.536Z,990.86
2017-09-13T12:16:32.533Z,990.97
2017-09-13T12:17:32.532Z,990.94
2017-09-13T12:18:32.530Z,990.85
2017-09-13T12:19:32.525Z,991.13
2017-09-13T12:20:32.525Z,991.04
2017-09-13T12:21:32.525Z,991.15
2017-09-13T12:22:32.524Z,991.11
2017-09-13T12:23:32.527Z,991.14
2017-09-13T12:24:32.524Z,991.14
2017-09-13T12:25:32.520Z,991.05
2017-09-13T12:26:32.522Z,991.09
2017-09-13T12:27:32.518Z,991.16
2017-09-13T12:28:32.522Z,991.21
2017-09-13T12:29:32.532Z,991.2
2017-09-13T12:30:32.519Z,991.16
2017-09-13T12:31:32.518Z,991.11